KEDN

Enterprise Municipal Airport

Enterprise, Alabama, USA
METAR KEDN 190255Z AUTO 00000KT 10SM CLR 22/22 A2995 RMK AO2 T02200220
Observed Flight Rules
Sep-19 @ 02:55 UTC (24 minutes ago) Visual Flight Rules
Visibility Clouds
10 miles
  • Clear skies
Temperatures Readings
Current 22°C / 72°F
Dewpoint 22°C / 72°F
Humidity 100%
Altimeter 29.95" Hg
Pressure 1014 hPa
Elevation 110
METAR KEDN 190255Z AUTO 00000KT 10SM CLR 22/22 A2995 RMK AO2 T02200220
Observed Flight Rules
Sep-19 @ 02:55 UTC
(24 minutes ago)
VFR
Clouds
  • Clear skies
Temperature Dewpoint
22°C / 72°F 22°C / 72°F
Humidity Altimeter Pressure
100% 29.95" Hg 1014 hPa